createdAt,value
2023-05-20T00:01:53.392Z,12.77
2023-05-20T00:04:20.723Z,12.73
2023-05-20T00:06:48.096Z,12.73
2023-05-20T00:09:16.921Z,12.72
2023-05-20T00:11:44.193Z,12.75
2023-05-20T00:14:11.411Z,12.75
2023-05-20T00:16:38.706Z,12.72
2023-05-20T00:19:05.997Z,12.71
2023-05-20T00:21:33.951Z,12.73
2023-05-20T00:24:01.698Z,12.72
2023-05-20T00:26:29.814Z,12.67
2023-05-20T00:28:57.986Z,12.67
2023-05-20T00:31:25.387Z,12.66
2023-05-20T00:33:53.063Z,12.64
2023-05-20T00:36:20.643Z,12.67
2023-05-20T00:38:48.030Z,12.72
2023-05-20T00:41:15.325Z,12.69
2023-05-20T00:43:42.538Z,12.72
2023-05-20T00:46:11.222Z,12.73
2023-05-20T00:48:43.463Z,12.77
2023-05-20T00:51:13.439Z,12.75
2023-05-20T00:53:41.659Z,12.73
2023-05-20T00:56:09.477Z,12.75
2023-05-20T00:58:39.953Z,12.77
2023-05-20T01:01:07.483Z,12.77
2023-05-20T01:03:34.862Z,12.79
2023-05-20T01:06:03.175Z,12.77
2023-05-20T01:08:30.547Z,12.72
2023-05-20T01:11:16.544Z,12.77
2023-05-20T01:13:55.547Z,12.78
2023-05-20T01:16:24.772Z,12.79
2023-05-20T01:18:57.277Z,12.76
2023-05-20T01:21:25.032Z,12.79
2023-05-20T01:23:52.271Z,12.77
2023-05-20T01:26:19.544Z,12.75
2023-05-20T01:28:46.872Z,12.76
2023-05-20T01:31:24.903Z,12.72
2023-05-20T01:33:59.926Z,12.71
2023-05-20T01:36:31.344Z,12.73
2023-05-20T01:39:00.149Z,12.73
2023-05-20T01:41:29.115Z,12.73
2023-05-20T01:43:56.604Z,12.73
2023-05-20T01:46:23.991Z,12.67
2023-05-20T01:48:51.308Z,12.67
2023-05-20T01:51:18.501Z,12.68
2023-05-20T01:53:45.849Z,12.70
2023-05-20T01:56:13.591Z,12.68
2023-05-20T01:58:40.992Z,12.67
2023-05-20T02:01:08.449Z,12.66
2023-05-20T02:03:35.826Z,12.63
2023-05-20T02:06:03.189Z,12.62
2023-05-20T02:08:30.446Z,12.67
2023-05-20T02:10:57.618Z,12.68
2023-05-20T02:13:25.060Z,12.65
2023-05-20T02:15:52.431Z,12.63
2023-05-20T02:18:19.658Z,12.59
2023-05-20T02:20:47.083Z,12.57
2023-05-20T02:23:14.804Z,12.51
2023-05-20T02:25:42.027Z,12.50
2023-05-20T02:28:10.921Z,12.53
2023-05-20T02:30:41.587Z,12.53
2023-05-20T02:33:09.717Z,12.53
2023-05-20T02:35:37.494Z,12.51
2023-05-20T02:38:04.754Z,12.53
2023-05-20T02:40:32.101Z,12.52
2023-05-20T02:43:01.818Z,12.54
2023-05-20T02:45:30.038Z,12.51
2023-05-20T02:47:57.611Z,12.50
2023-05-20T02:50:25.165Z,12.47
2023-05-20T02:52:52.346Z,12.46
2023-05-20T02:55:19.752Z,12.47
2023-05-20T02:57:47.007Z,12.50
2023-05-20T03:00:14.573Z,12.48
2023-05-20T03:02:41.869Z,12.48
2023-05-20T03:05:09.684Z,12.44
2023-05-20T03:07:36.953Z,12.45
2023-05-20T03:10:09.246Z,12.48
2023-05-20T03:12:38.534Z,12.44
2023-05-20T03:15:07.164Z,12.46
2023-05-20T03:17:36.222Z,12.45
2023-05-20T03:20:04.030Z,12.46
2023-05-20T03:22:31.877Z,12.45
2023-05-20T03:25:00.468Z,12.43
2023-05-20T03:27:27.979Z,12.44
2023-05-20T03:29:55.197Z,12.44
2023-05-20T03:32:22.567Z,12.41
2023-05-20T03:34:49.848Z,12.37
2023-05-20T03:37:17.157Z,12.37
2023-05-20T03:39:44.359Z,12.33
2023-05-20T03:42:11.602Z,12.34
2023-05-20T03:44:39.408Z,12.34
2023-05-20T03:47:06.773Z,12.33
2023-05-20T03:49:33.978Z,12.38
2023-05-20T03:52:01.364Z,12.38
2023-05-20T03:54:30.005Z,12.35
2023-05-20T03:56:57.321Z,12.37
2023-05-20T03:59:24.581Z,12.35
2023-05-20T04:01:51.886Z,12.35
2023-05-20T04:04:19.266Z,12.35
2023-05-20T04:06:46.545Z,12.35
2023-05-20T04:09:13.752Z,12.37
2023-05-20T04:11:41.043Z,12.41
2023-05-20T04:14:10.523Z,12.44
2023-05-20T04:16:38.876Z,12.45
2023-05-20T04:19:06.171Z,12.47
2023-05-20T04:21:33.541Z,12.48
2023-05-20T04:24:00.748Z,12.48
2023-05-20T04:26:28.948Z,12.47
2023-05-20T04:28:58.965Z,12.47
2023-05-20T04:31:29.330Z,12.48
2023-05-20T04:33:57.758Z,12.53
2023-05-20T04:36:28.791Z,12.52
2023-05-20T04:38:57.286Z,12.48
2023-05-20T04:41:24.789Z,12.47
2023-05-20T04:43:51.962Z,12.47
2023-05-20T04:46:20.477Z,12.47
2023-05-20T04:48:48.177Z,12.47
2023-05-20T04:51:16.136Z,12.52
2023-05-20T04:53:46.170Z,12.57
2023-05-20T04:56:13.585Z,12.60
2023-05-20T04:58:41.534Z,12.63
2023-05-20T05:01:08.904Z,12.66
2023-05-20T05:03:36.817Z,12.70
2023-05-20T05:06:04.724Z,12.72
2023-05-20T05:08:32.083Z,12.78
2023-05-20T05:10:59.641Z,12.83
2023-05-20T05:13:26.889Z,12.84
2023-05-20T05:16:02.228Z,12.95
2023-05-20T05:18:31.165Z,12.96
2023-05-20T05:21:06.497Z,12.95
2023-05-20T05:23:35.482Z,12.98
2023-05-20T05:26:02.741Z,13.04
2023-05-20T05:28:30.076Z,12.98
2023-05-20T05:30:58.320Z,13.02
2023-05-20T05:33:26.777Z,13.06
2023-05-20T05:35:54.587Z,13.08
2023-05-20T05:38:21.892Z,13.13
2023-05-20T05:40:49.087Z,13.15
2023-05-20T05:43:17.314Z,13.10
2023-05-20T05:45:46.867Z,13.13
2023-05-20T05:48:14.258Z,13.14
2023-05-20T05:50:48.563Z,13.15
2023-05-20T05:53:17.752Z,13.15
2023-05-20T05:55:48.247Z,13.22
2023-05-20T05:58:17.666Z,13.30
2023-05-20T06:00:44.954Z,13.31
2023-05-20T06:03:12.915Z,13.28
2023-05-20T06:05:40.669Z,13.29
2023-05-20T06:08:08.114Z,13.29
2023-05-20T06:10:36.855Z,13.32
2023-05-20T06:13:04.095Z,13.35
2023-05-20T06:15:33.006Z,13.43
2023-05-20T06:18:00.643Z,13.45
2023-05-20T06:20:28.280Z,13.50
2023-05-20T06:22:55.663Z,13.55
2023-05-20T06:25:25.871Z,13.59
2023-05-20T06:27:53.113Z,13.67
2023-05-20T06:30:20.950Z,13.71
2023-05-20T06:32:48.802Z,13.81
2023-05-20T06:35:16.699Z,13.88
2023-05-20T06:37:43.970Z,13.92
2023-05-20T06:40:12.653Z,13.87
2023-05-20T06:42:39.919Z,13.89
2023-05-20T06:45:07.999Z,13.83
2023-05-20T06:47:57.990Z,13.84
2023-05-20T06:50:30.005Z,13.87
2023-05-20T06:53:15.192Z,13.84
2023-05-20T06:55:42.477Z,13.77
2023-05-20T06:58:09.750Z,13.64
2023-05-20T07:00:39.236Z,13.57
2023-05-20T07:03:06.653Z,13.53
2023-05-20T07:05:34.249Z,13.51
2023-05-20T07:08:01.732Z,13.56
2023-05-20T07:10:29.780Z,13.60
2023-05-20T07:12:57.031Z,13.57
2023-05-20T07:15:24.383Z,13.52
2023-05-20T07:17:51.999Z,13.53
2023-05-20T07:20:19.439Z,13.58
2023-05-20T07:22:48.714Z,13.62
2023-05-20T07:25:21.789Z,13.64
2023-05-20T07:27:49.413Z,13.58
2023-05-20T07:30:17.106Z,13.61
2023-05-20T07:32:51.097Z,13.67
2023-05-20T07:35:18.441Z,13.71
2023-05-20T07:37:45.936Z,13.72
2023-05-20T07:40:14.493Z,13.75
2023-05-20T07:42:42.417Z,13.81
2023-05-20T07:45:10.930Z,13.88
2023-05-20T07:47:38.763Z,13.88
2023-05-20T07:50:06.978Z,13.93
2023-05-20T07:52:51.834Z,13.97
2023-05-20T07:55:24.124Z,14.00
2023-05-20T07:57:51.558Z,13.97
2023-05-20T08:00:19.786Z,14.01
2023-05-20T08:02:47.268Z,13.96
2023-05-20T08:05:19.594Z,13.97
2023-05-20T08:07:47.709Z,13.95
2023-05-20T08:10:16.069Z,13.95
2023-05-20T08:12:46.367Z,13.98
2023-05-20T08:15:13.813Z,14.02
2023-05-20T08:17:41.697Z,14.01
2023-05-20T08:20:12.664Z,13.98
2023-05-20T08:22:40.383Z,13.97
2023-05-20T08:25:09.913Z,13.99
2023-05-20T08:27:37.595Z,13.97
2023-05-20T08:30:08.159Z,14.02
2023-05-20T08:32:36.894Z,14.10
2023-05-20T08:35:05.328Z,14.15
2023-05-20T08:37:32.511Z,14.26
2023-05-20T08:39:59.707Z,14.32
2023-05-20T08:42:26.945Z,14.36
2023-05-20T08:44:58.142Z,14.38
2023-05-20T08:47:27.076Z,14.34
2023-05-20T08:49:54.379Z,14.28
2023-05-20T08:52:22.961Z,14.27
2023-05-20T08:54:52.057Z,14.28
2023-05-20T08:57:20.354Z,14.25
2023-05-20T08:59:47.544Z,14.32
2023-05-20T09:02:15.200Z,14.30
2023-05-20T09:04:42.510Z,14.32
2023-05-20T09:07:09.906Z,14.28
2023-05-20T09:09:37.132Z,14.32
2023-05-20T09:12:04.860Z,14.33
2023-05-20T09:14:32.430Z,14.36
2023-05-20T09:17:00.204Z,14.42
2023-05-20T09:19:27.513Z,14.55
2023-05-20T09:21:55.526Z,14.66
2023-05-20T09:24:27.111Z,14.71
2023-05-20T09:26:54.525Z,14.78
2023-05-20T09:29:21.983Z,14.87
2023-05-20T09:31:50.749Z,14.92
2023-05-20T09:34:19.826Z,15.02
2023-05-20T09:36:51.069Z,15.19
2023-05-20T09:39:31.385Z,15.40
2023-05-20T09:42:12.628Z,15.50
2023-05-20T09:44:41.104Z,15.57
2023-05-20T09:47:09.587Z,15.61
2023-05-20T09:49:38.068Z,15.55
2023-05-20T09:52:05.975Z,15.49
2023-05-20T09:54:35.815Z,15.41
2023-05-20T09:57:05.178Z,15.35
2023-05-20T09:59:33.650Z,15.37
2023-05-20T10:02:01.058Z,15.44
2023-05-20T10:04:30.771Z,15.50
2023-05-20T10:07:20.906Z,15.50
2023-05-20T10:10:51.045Z,15.49
2023-05-20T10:13:45.398Z,15.50
2023-05-20T10:16:45.024Z,15.49
2023-05-20T10:19:33.981Z,15.42
2023-05-20T10:22:10.297Z,15.36
2023-05-20T10:24:44.660Z,15.33
2023-05-20T10:27:17.204Z,15.39
2023-05-20T10:29:57.133Z,15.45
2023-05-20T10:32:26.062Z,15.44
2023-05-20T10:34:53.601Z,15.42
2023-05-20T10:37:28.082Z,15.45
2023-05-20T10:40:18.771Z,15.52
2023-05-20T10:42:47.355Z,15.46
2023-05-20T10:45:29.816Z,15.53
2023-05-20T10:47:59.264Z,15.57
2023-05-20T10:50:36.698Z,15.64
2023-05-20T10:53:09.473Z,15.76
2023-05-20T10:55:47.911Z,15.84
2023-05-20T10:58:15.767Z,15.72
2023-05-20T11:00:43.841Z,15.53
2023-05-20T11:03:20.484Z,15.55
2023-05-20T11:05:49.021Z,15.80
2023-05-20T11:08:27.755Z,16.20
2023-05-20T11:10:57.961Z,16.71
2023-05-20T11:13:26.546Z,16.90
2023-05-20T11:15:54.328Z,16.85
2023-05-20T11:18:21.543Z,16.80
2023-05-20T11:20:48.925Z,16.75
2023-05-20T11:23:16.460Z,16.76
2023-05-20T11:25:43.738Z,16.79
2023-05-20T11:28:14.611Z,16.63
2023-05-20T11:30:43.680Z,16.32
2023-05-20T11:33:17.196Z,16.13
2023-05-20T11:35:53.712Z,15.91
2023-05-20T11:38:21.851Z,15.96
2023-05-20T11:40:56.496Z,16.03
2023-05-20T11:43:24.867Z,15.92
2023-05-20T11:46:01.577Z,15.82
2023-05-20T11:48:28.936Z,15.60
2023-05-20T11:50:57.092Z,15.49
2023-05-20T11:53:25.298Z,15.38
2023-05-20T11:56:01.185Z,15.15
2023-05-20T11:58:34.916Z,15.04
2023-05-20T12:01:14.047Z,15.03
2023-05-20T12:03:48.935Z,15.06
2023-05-20T12:06:18.365Z,15.04
2023-05-20T12:08:46.500Z,14.98
2023-05-20T12:11:13.918Z,15.03
2023-05-20T12:13:41.191Z,15.09
2023-05-20T12:16:08.442Z,15.08
2023-05-20T12:18:35.824Z,15.13
2023-05-20T12:21:05.851Z,15.25
2023-05-20T12:23:34.313Z,15.25
2023-05-20T12:26:09.674Z,15.16
2023-05-20T12:28:37.158Z,15.14
2023-05-20T12:31:05.802Z,15.19
2023-05-20T12:33:33.189Z,15.32
2023-05-20T12:36:00.591Z,15.31
2023-05-20T12:38:28.060Z,15.31
2023-05-20T12:40:55.427Z,15.43
2023-05-20T12:43:22.692Z,15.63
2023-05-20T12:45:51.217Z,15.81
2023-05-20T12:48:18.562Z,15.83
2023-05-20T12:50:46.021Z,15.80
2023-05-20T12:53:13.228Z,15.84
2023-05-20T12:55:40.796Z,15.89
2023-05-20T12:58:10.828Z,15.98
2023-05-20T13:00:38.141Z,16.16
2023-05-20T13:03:09.103Z,16.57
2023-05-20T13:05:36.403Z,17.01
2023-05-20T13:08:03.991Z,17.08
2023-05-20T13:10:31.470Z,16.33
2023-05-20T13:12:59.596Z,15.89
2023-05-20T13:15:26.869Z,15.58
2023-05-20T13:17:54.517Z,15.50
2023-05-20T13:20:22.041Z,15.45
2023-05-20T13:22:50.494Z,15.38
2023-05-20T13:25:17.830Z,15.37
2023-05-20T13:27:45.080Z,15.54
2023-05-20T13:30:12.654Z,15.66
2023-05-20T13:32:40.019Z,15.57
2023-05-20T13:35:08.291Z,15.44
2023-05-20T13:37:35.388Z,15.25
2023-05-20T13:40:02.556Z,14.82
2023-05-20T13:42:29.777Z,14.59
2023-05-20T13:44:57.042Z,14.47
2023-05-20T13:47:24.317Z,14.53
2023-05-20T13:49:51.548Z,14.59
2023-05-20T13:52:18.742Z,14.55
2023-05-20T13:54:47.462Z,14.56
2023-05-20T13:57:15.855Z,14.58
2023-05-20T13:59:43.211Z,14.62
2023-05-20T14:02:10.698Z,14.70
2023-05-20T14:04:39.952Z,14.83
2023-05-20T14:07:09.820Z,14.87
2023-05-20T14:09:37.328Z,14.86
2023-05-20T14:12:06.427Z,14.77
2023-05-20T14:14:33.776Z,14.75
2023-05-20T14:17:01.006Z,14.70
2023-05-20T14:19:30.611Z,14.75
2023-05-20T14:22:01.049Z,14.61
2023-05-20T14:24:28.553Z,14.48
2023-05-20T14:26:55.804Z,14.28
2023-05-20T14:29:22.988Z,14.13
2023-05-20T14:31:50.574Z,14.08
2023-05-20T14:34:18.070Z,14.05
2023-05-20T14:36:45.316Z,14.06
2023-05-20T14:39:12.498Z,14.11
2023-05-20T14:41:39.730Z,14.17
2023-05-20T14:44:06.901Z,14.22
2023-05-20T14:46:34.448Z,14.30
2023-05-20T14:49:01.949Z,14.35
2023-05-20T14:51:29.235Z,14.27
2023-05-20T14:53:56.550Z,14.16
2023-05-20T14:56:23.954Z,14.20
2023-05-20T14:58:51.210Z,14.17
2023-05-20T15:01:18.549Z,14.20
2023-05-20T15:03:45.967Z,14.20
2023-05-20T15:06:13.191Z,14.13
2023-05-20T15:08:41.561Z,14.14
2023-05-20T15:11:09.046Z,14.25
2023-05-20T15:13:37.715Z,14.34
2023-05-20T15:16:07.688Z,14.40
2023-05-20T15:18:34.920Z,14.42
2023-05-20T15:21:02.223Z,14.38
2023-05-20T15:23:29.978Z,14.42
2023-05-20T15:26:00.497Z,14.44
2023-05-20T15:28:31.530Z,14.52
2023-05-20T15:30:58.772Z,14.59
2023-05-20T15:33:26.059Z,14.58
2023-05-20T15:35:53.928Z,14.57
2023-05-20T15:38:21.092Z,14.58
2023-05-20T15:40:52.112Z,14.57
2023-05-20T15:43:20.095Z,14.58
2023-05-20T15:45:48.276Z,14.55
2023-05-20T15:48:15.790Z,14.55
2023-05-20T15:50:42.984Z,14.53
2023-05-20T15:53:10.762Z,14.53
2023-05-20T15:55:38.076Z,14.51
2023-05-20T15:58:05.298Z,14.53
2023-05-20T16:00:33.030Z,14.55
2023-05-20T16:03:00.631Z,14.53
2023-05-20T16:05:28.010Z,14.52
2023-05-20T16:07:56.894Z,14.50
2023-05-20T16:10:26.069Z,14.50
2023-05-20T16:12:53.420Z,14.45
2023-05-20T16:15:20.919Z,14.47
2023-05-20T16:17:48.276Z,14.49
2023-05-20T16:20:15.546Z,14.50
2023-05-20T16:22:46.188Z,14.48
2023-05-20T16:25:14.217Z,14.46
2023-05-20T16:27:41.425Z,14.40
2023-05-20T16:30:10.164Z,14.39
2023-05-20T16:32:37.388Z,14.40
2023-05-20T16:35:06.218Z,14.43
2023-05-20T16:37:34.299Z,14.40
2023-05-20T16:40:01.556Z,14.39
2023-05-20T16:42:29.033Z,14.34
2023-05-20T16:44:56.539Z,14.35
2023-05-20T16:47:23.923Z,14.37
2023-05-20T16:49:52.193Z,14.36
2023-05-20T16:52:19.442Z,14.39
2023-05-20T16:54:46.902Z,14.41
2023-05-20T16:57:15.874Z,14.43
2023-05-20T16:59:43.177Z,14.42
2023-05-20T17:02:10.614Z,14.45
2023-05-20T17:04:40.192Z,14.44
2023-05-20T17:07:09.861Z,14.45
2023-05-20T17:09:37.398Z,14.42
2023-05-20T17:12:05.479Z,14.43
2023-05-20T17:14:33.363Z,14.46
2023-05-20T17:17:00.870Z,14.50
2023-05-20T17:19:30.723Z,14.46
2023-05-20T17:21:57.964Z,14.44
2023-05-20T17:24:25.668Z,14.43
2023-05-20T17:26:52.932Z,14.44
2023-05-20T17:29:20.098Z,14.47
2023-05-20T17:31:47.434Z,14.48
2023-05-20T17:34:14.762Z,14.43
2023-05-20T17:36:42.889Z,14.42
2023-05-20T17:39:10.346Z,14.41
2023-05-20T17:41:37.672Z,14.40
2023-05-20T17:44:05.403Z,14.43
2023-05-20T17:46:32.636Z,14.37
2023-05-20T17:48:59.842Z,14.34
2023-05-20T17:51:27.058Z,14.33
2023-05-20T17:53:54.207Z,14.33
2023-05-20T17:56:22.797Z,14.30
2023-05-20T17:58:50.128Z,14.29
2023-05-20T18:01:17.579Z,14.28
2023-05-20T18:03:44.973Z,14.30
2023-05-20T18:06:12.800Z,14.30
2023-05-20T18:08:40.388Z,14.29
2023-05-20T18:11:07.599Z,14.28
2023-05-20T18:13:34.786Z,14.31
2023-05-20T18:16:01.979Z,14.27
2023-05-20T18:18:29.205Z,14.23
2023-05-20T18:20:56.365Z,14.25
2023-05-20T18:23:23.524Z,14.21
2023-05-20T18:25:50.739Z,14.20
2023-05-20T18:28:17.928Z,14.18
2023-05-20T18:30:45.187Z,14.17
2023-05-20T18:33:13.596Z,14.15
2023-05-20T18:35:40.960Z,14.18
2023-05-20T18:38:08.233Z,14.16
2023-05-20T18:40:35.764Z,14.16
2023-05-20T18:43:03.073Z,14.16
2023-05-20T18:45:30.418Z,14.17
2023-05-20T18:47:59.780Z,14.18
2023-05-20T18:50:27.111Z,14.16
2023-05-20T18:52:54.268Z,14.15
2023-05-20T18:55:21.499Z,14.14
2023-05-20T18:57:48.687Z,14.13
2023-05-20T19:00:17.217Z,14.10
2023-05-20T19:02:44.921Z,14.11
2023-05-20T19:05:13.243Z,14.13
2023-05-20T19:07:40.923Z,14.13
2023-05-20T19:10:09.338Z,14.13
2023-05-20T19:12:36.566Z,14.09
2023-05-20T19:15:05.134Z,14.08
2023-05-20T19:17:33.268Z,14.08
2023-05-20T19:20:00.487Z,14.09
2023-05-20T19:22:27.664Z,14.09
2023-05-20T19:24:54.979Z,14.11
2023-05-20T19:27:22.159Z,14.13
2023-05-20T19:29:49.341Z,14.15
2023-05-20T19:32:16.551Z,14.16
2023-05-20T19:34:43.889Z,14.19
2023-05-20T19:37:12.705Z,14.17
2023-05-20T19:39:39.942Z,14.14
2023-05-20T19:42:07.250Z,14.15
2023-05-20T19:44:34.430Z,14.13
2023-05-20T19:47:01.712Z,14.16
2023-05-20T19:49:29.504Z,14.15
2023-05-20T19:51:56.887Z,14.19
2023-05-20T19:54:24.136Z,14.15
2023-05-20T19:56:51.312Z,14.16
2023-05-20T19:59:18.522Z,14.16
2023-05-20T20:01:46.191Z,14.12
2023-05-20T20:04:13.813Z,14.14
2023-05-20T20:06:41.001Z,14.12
2023-05-20T20:09:12.271Z,14.10
2023-05-20T20:11:39.542Z,14.10
2023-05-20T20:14:06.897Z,14.09
2023-05-20T20:16:34.695Z,14.10
2023-05-20T20:19:02.815Z,14.11
2023-05-20T20:21:30.171Z,14.11
2023-05-20T20:23:57.467Z,14.11
2023-05-20T20:26:25.860Z,14.10
2023-05-20T20:28:53.306Z,14.10
2023-05-20T20:31:20.650Z,14.08
2023-05-20T20:33:47.866Z,14.06
2023-05-20T20:36:15.139Z,14.07
2023-05-20T20:38:46.689Z,14.06
2023-05-20T20:41:16.226Z,14.03
2023-05-20T20:43:44.976Z,14.04
2023-05-20T20:46:14.895Z,14.03
2023-05-20T20:48:45.661Z,14.02
2023-05-20T20:51:17.267Z,14.01
2023-05-20T20:53:46.998Z,14.01
2023-05-20T20:56:14.390Z,14.02
2023-05-20T20:58:41.724Z,14.02
2023-05-20T21:01:11.427Z,14.01
2023-05-20T21:03:40.074Z,14.02
2023-05-20T21:06:08.055Z,13.98
2023-05-20T21:08:35.563Z,13.97
2023-05-20T21:11:02.925Z,13.95
2023-05-20T21:13:33.199Z,13.93
2023-05-20T21:16:00.761Z,13.92
2023-05-20T21:18:27.989Z,13.89
2023-05-20T21:20:56.101Z,13.92
2023-05-20T21:23:23.348Z,13.90
2023-05-20T21:25:50.579Z,13.89
2023-05-20T21:28:17.929Z,13.85
2023-05-20T21:30:45.241Z,13.85
2023-05-20T21:33:12.563Z,13.89
2023-05-20T21:35:39.879Z,13.87
2023-05-20T21:38:07.150Z,13.87
2023-05-20T21:40:34.483Z,13.86
2023-05-20T21:43:01.934Z,13.83
2023-05-20T21:45:29.200Z,13.85
2023-05-20T21:47:57.373Z,13.83
2023-05-20T21:50:24.766Z,13.85
2023-05-20T21:52:52.743Z,13.87
2023-05-20T21:55:23.469Z,13.84
2023-05-20T21:57:51.387Z,13.83
2023-05-20T22:00:22.138Z,13.81
2023-05-20T22:02:50.777Z,13.79
2023-05-20T22:05:18.247Z,13.79
2023-05-20T22:07:45.521Z,13.78
2023-05-20T22:10:14.176Z,13.78
2023-05-20T22:12:44.489Z,13.78
2023-05-20T22:15:11.955Z,13.77
2023-05-20T22:17:39.673Z,13.77
2023-05-20T22:20:08.603Z,13.75
2023-05-20T22:22:36.322Z,13.76
2023-05-20T22:25:03.889Z,13.77
2023-05-20T22:27:32.344Z,13.75
2023-05-20T22:29:59.699Z,13.74
2023-05-20T22:32:26.960Z,13.73
2023-05-20T22:34:58.088Z,13.71
2023-05-20T22:37:28.825Z,13.72
2023-05-20T22:39:56.729Z,13.71
2023-05-20T22:42:30.141Z,13.70
2023-05-20T22:44:57.524Z,13.71
2023-05-20T22:47:25.010Z,13.70
2023-05-20T22:49:52.446Z,13.70
2023-05-20T22:52:21.124Z,13.69
2023-05-20T22:54:48.443Z,13.67
2023-05-20T22:57:17.011Z,13.68
2023-05-20T22:59:44.416Z,13.69
2023-05-20T23:02:14.553Z,13.66
2023-05-20T23:04:41.888Z,13.66
2023-05-20T23:07:09.139Z,13.68
2023-05-20T23:09:36.480Z,13.71
2023-05-20T23:12:04.171Z,13.71
2023-05-20T23:14:31.868Z,13.69
2023-05-20T23:16:59.446Z,13.68
2023-05-20T23:19:29.799Z,13.68
2023-05-20T23:21:59.872Z,13.67
2023-05-20T23:24:27.208Z,13.65
2023-05-20T23:26:54.558Z,13.65
2023-05-20T23:29:22.318Z,13.63
2023-05-20T23:31:50.989Z,13.59
2023-05-20T23:34:18.550Z,13.58
2023-05-20T23:36:46.869Z,13.57
2023-05-20T23:39:16.155Z,13.59
2023-05-20T23:41:47.154Z,13.60
2023-05-20T23:44:14.624Z,13.57
2023-05-20T23:46:41.957Z,13.55
2023-05-20T23:49:10.196Z,13.53
2023-05-20T23:51:37.552Z,13.52
2023-05-20T23:54:05.047Z,13.51
2023-05-20T23:56:32.322Z,13.50
2023-05-20T23:59:02.136Z,13.46
